Chem Sirius — D5JP4 — position and weather

sailwx.info

Track history (hours):
 
Tides and Currents Weather Stations Pressure Air Temp Water Temp Dewpoint Dewpoint Depression Visibility Wind Speed Wind Dir Waves Ship Positions

Chem Sirius

Last reported at 2017-Oct-18 00:00 UTC. Time now 2017-Oct-18 00:17 UTC.
Position N 51°17' E 004°20'.

Length 146 m; draft 6.7 m.

Type: Ship (hazmat cat B). MMSI: 636017165.

Date/timePositionNaut miles runAvg speedWind from/ knotsBaromVisibWave heightAir tempDewpointWater temp
2017-Oct-18 00:00N 51°17' E 004°20'1 1.2
2017-Oct-17 23:30N 51°17' E 004°20'0 0.0
2017-Oct-17 23:00N 51°17' E 004°20'0 0.0
2017-Oct-17 22:30N 51°17' E 004°20'0 0.0
2017-Oct-17 22:00N 51°17' E 004°20'0 0.0
2017-Oct-17 21:30N 51°17' E 004°20'0 0.0
2017-Oct-17 21:00N 51°17' E 004°20'0 0.0
2017-Oct-17 20:30N 51°17' E 004°20'0 0.0
2017-Oct-17 19:57N 51°17' E 004°20'0 0.0
2017-Oct-17 19:30N 51°17' E 004°20'0 0.0
2017-Oct-17 18:54N 51°17' E 004°20'0 0.0
2017-Oct-17 18:30N 51°17' E 004°20'0 0.0
2017-Oct-17 18:00N 51°17' E 004°20'0 0.0
2017-Oct-17 17:30N 51°17' E 004°20'0 0.0
2017-Oct-17 17:00N 51°17' E 004°20'0 0.0
2017-Oct-17 16:27N 51°17' E 004°20'0 0.0
2017-Oct-17 16:00N 51°17' E 004°20'0 0.0
2017-Oct-17 15:27N 51°17' E 004°20'0 0.0
2017-Oct-17 15:00N 51°17' E 004°20'0 0.0
2017-Oct-17 14:27N 51°17' E 004°20'0 0.0
2017-Oct-17 14:00N 51°17' E 004°20'0 0.0
2017-Oct-17 13:21N 51°17' E 004°20'0 0.0
2017-Oct-17 12:51N 51°17' E 004°20'0 0.0
2017-Oct-17 12:30N 51°17' E 004°20'0 0.0
2017-Oct-17 11:57N 51°17' E 004°20'0 0.0
2017-Oct-17 11:24N 51°17' E 004°20'0 0.0
2017-Oct-17 11:00N 51°17' E 004°20'0 0.0
2017-Oct-17 10:21N 51°17' E 004°20'0 0.0
2017-Oct-17 10:00N 51°17' E 004°20'0 0.0
2017-Oct-17 09:24N 51°17' E 004°20'0 0.0
2017-Oct-17 09:00N 51°17' E 004°20'0 0.0
2017-Oct-17 08:30N 51°17' E 004°20'0 0.0
2017-Oct-17 08:00N 51°17' E 004°20'0 0.0
2017-Oct-17 07:30N 51°17' E 004°20'0 0.0
2017-Oct-17 07:00N 51°17' E 004°20'0 0.0
2017-Oct-17 06:30N 51°17' E 004°20'0 0.0
2017-Oct-17 06:00N 51°17' E 004°20'0 0.0
2017-Oct-17 05:27N 51°17' E 004°20'0 0.0
2017-Oct-17 05:00N 51°17' E 004°20'0 0.0
2017-Oct-17 04:27N 51°17' E 004°20'0 0.0
2017-Oct-17 04:00N 51°17' E 004°20'0 0.0
2017-Oct-17 03:30N 51°17' E 004°20'1 1.1
2017-Oct-17 03:00N 51°17' E 004°20'3 5.4
2017-Oct-17 02:30N 51°20' E 004°18'1 2.2
2017-Oct-17 02:00N 51°21' E 004°17'0 0.1
2017-Oct-17 01:31N 51°21' E 004°17'1 2.8
2017-Oct-17 01:00N 51°21' E 004°15'4 7.3
2017-Oct-17 00:30N 51°24' E 004°11'5 9.8
2017-Oct-17 00:00N 51°22' E 004°04'4 8.8
2017-Oct-16 23:30N 51°25' E 003°58'613.0
2017-Oct-16 23:00N 51°21' E 003°50'611.9
2017-Oct-16 22:30N 51°24' E 003°43'510.0
2017-Oct-16 22:00N 51°25' E 003°35'611.4
2017-Oct-16 21:30N 51°25' E 003°26'714.4
2017-Oct-16 21:01N 51°25' E 003°14'713.4
2017-Oct-16 20:30N 51°24' E 003°04'612.2
2017-Oct-16 20:00N 51°22' E 002°54'611.4
2017-Oct-16 19:30N 51°22' E 002°45'6 9.1
2017-Oct-16 18:52N 51°22' E 002°36'3 9.5
2017-Oct-16 18:30N 51°23' E 002°31'713.3
2017-Oct-16 18:00N 51°30' E 002°35'714.1
2017-Oct-16 17:30N 51°36' E 002°39'714.0
2017-Oct-16 17:00N 51°43' E 002°38'2711.5
2017-Oct-16 14:39N 52°03' E 003°08'314.3
2017-Oct-16 14:27N 52°03' E 003°12'1414.2
2017-Oct-16 13:28N 52°03' E 003°35'613.1
2017-Oct-16 13:00N 52°03' E 003°45'510.5
2017-Oct-16 12:30N 52°02' E 003°53'510.5
2017-Oct-16 12:00N 52°00' E 004°01'611.1
2017-Oct-16 11:30N 51°58' E 004°09'5 9.4
2017-Oct-16 11:00N 51°55' E 004°15'3 5.0
2017-Oct-16 10:29N 51°53' E 004°19'0 0.0
2017-Oct-16 09:43N 51°53' E 004°19'0 0.0
2017-Oct-16 09:25N 51°53' E 004°19'0 0.0
2017-Oct-16 08:55N 51°53' E 004°19'0 0.0
2017-Oct-16 08:28N 51°53' E 004°19'0 0.0
2017-Oct-16 07:58N 51°53' E 004°19'0 0.0
2017-Oct-16 07:29N 51°53' E 004°19'0 0.0
2017-Oct-16 06:56N 51°53' E 004°19'0 0.0
2017-Oct-16 06:25N 51°53' E 004°19'0 0.0
2017-Oct-16 05:58N 51°53' E 004°19'0 0.0
2017-Oct-16 05:28N 51°53' E 004°19'0 0.0
2017-Oct-16 04:58N 51°53' E 004°19'0 0.0
2017-Oct-16 04:29N 51°53' E 004°19'0 0.0
2017-Oct-16 03:58N 51°53' E 004°19'0 0.0
2017-Oct-16 03:28N 51°53' E 004°19'0 0.0
2017-Oct-16 02:58N 51°53' E 004°19'0 0.0
2017-Oct-16 02:26N 51°53' E 004°19'0 0.0
2017-Oct-16 01:58N 51°53' E 004°19'0 0.0
2017-Oct-16 01:28N 51°53' E 004°19'0 0.0
2017-Oct-16 00:52N 51°53' E 004°19'0 0.0
2017-Oct-16 00:28N 51°53' E 004°19'0 0.0
2017-Oct-15 23:59N 51°53' E 004°19'0 0.0
2017-Oct-15 23:29N 51°53' E 004°19'0 0.0
2017-Oct-15 22:59N 51°53' E 004°19'0 0.0
2017-Oct-15 22:29N 51°53' E 004°19'0 0.2
2017-Oct-15 22:01N 51°53' E 004°19'1 2.4
2017-Oct-15 21:31N 51°53' E 004°17'1 1.2
2017-Oct-15 21:01N 51°52' E 004°16'0 0.0
2017-Oct-15 20:30N 51°52' E 004°16'0 0.0
2017-Oct-15 20:00N 51°52' E 004°16'0 0.0
2017-Oct-15 19:30N 51°52' E 004°16'0 0.0
2017-Oct-15 19:00N 51°52' E 004°16'0 0.0
2017-Oct-15 18:30N 51°52' E 004°16'0 0.0
2017-Oct-15 17:54N 51°52' E 004°16'0 0.0
2017-Oct-15 17:30N 51°52' E 004°16'0 0.0
2017-Oct-15 17:00N 51°52' E 004°16'0 0.0
2017-Oct-15 16:27N 51°52' E 004°16'0 0.0
2017-Oct-15 15:54N 51°52' E 004°16'0 0.0
2017-Oct-15 15:30N 51°52' E 004°16'0 0.0
2017-Oct-15 15:00N 51°52' E 004°16'0 0.0
2017-Oct-15 13:57N 51°52' E 004°16'0 0.0
2017-Oct-15 13:27N 51°52' E 004°16'0 0.0
2017-Oct-15 12:57N 51°52' E 004°16'0 0.0
2017-Oct-15 12:30N 51°52' E 004°16'0 0.0
2017-Oct-15 12:00N 51°52' E 004°16'0 0.0
2017-Oct-15 11:30N 51°52' E 004°16'0 0.0
2017-Oct-15 11:00N 51°52' E 004°16'0 0.0
2017-Oct-15 10:30N 51°52' E 004°16'0 0.0
2017-Oct-15 10:00N 51°52' E 004°16'0 0.0
2017-Oct-15 09:27N 51°52' E 004°16'0 0.0
2017-Oct-15 09:00N 51°52' E 004°16'0 0.0
2017-Oct-15 08:30N 51°52' E 004°16'0 0.0
2017-Oct-15 07:57N 51°52' E 004°16'0 0.0
2017-Oct-15 07:30N 51°52' E 004°16'0 0.0
2017-Oct-15 06:57N 51°52' E 004°16'0 0.0
2017-Oct-15 06:30N 51°52' E 004°16'0 0.0
2017-Oct-15 06:00N 51°52' E 004°16'0 0.0
2017-Oct-15 05:27N 51°52' E 004°16'0 0.0
2017-Oct-15 05:00N 51°52' E 004°16'0 0.0
2017-Oct-15 04:30N 51°52' E 004°16'0 0.0
2017-Oct-15 04:00N 51°52' E 004°16'0 0.0
2017-Oct-15 03:27N 51°52' E 004°16'0 0.0
2017-Oct-15 02:57N 51°52' E 004°16'0 0.0
2017-Oct-15 02:27N 51°52' E 004°16'0 0.0
2017-Oct-15 02:00N 51°52' E 004°16'0 0.0
2017-Oct-15 01:24N 51°52' E 004°16'0 0.0
2017-Oct-15 01:00N 51°52' E 004°16'0 0.0
2017-Oct-15 00:30N 51°52' E 004°16'0 0.0
2017-Oct-15 00:00N 51°52' E 004°16'0 0.0
2017-Oct-14 23:30N 51°52' E 004°16'0 0.0
2017-Oct-14 22:57N 51°52' E 004°16'0 0.0
2017-Oct-14 22:30N 51°52' E 004°16'0 0.0
2017-Oct-14 22:00N 51°52' E 004°16'0 0.0
2017-Oct-14 21:27N 51°52' E 004°16'0 0.0
2017-Oct-14 21:00N 51°52' E 004°16'0 0.0
2017-Oct-14 20:30N 51°52' E 004°16'0 0.0
2017-Oct-14 20:00N 51°52' E 004°16'0 0.0
2017-Oct-14 19:27N 51°52' E 004°16'0 0.0
2017-Oct-14 19:00N 51°52' E 004°16'0 0.0
2017-Oct-14 18:30N 51°52' E 004°16'0 0.0
2017-Oct-14 18:00N 51°52' E 004°16'0 0.0
2017-Oct-14 17:27N 51°52' E 004°16'0 0.0
2017-Oct-14 17:00N 51°52' E 004°16'0 0.0
2017-Oct-14 16:30N 51°52' E 004°16'0 0.0
2017-Oct-14 15:57N 51°52' E 004°16'0 0.0
2017-Oct-14 15:27N 51°52' E 004°16'0 0.0
2017-Oct-14 15:00N 51°52' E 004°16'0 0.0
2017-Oct-14 14:30N 51°52' E 004°16'0 0.0
2017-Oct-14 13:57N 51°52' E 004°16'0 0.0
2017-Oct-14 13:30N 51°52' E 004°16'0 0.0
2017-Oct-14 13:00N 51°52' E 004°16'0 0.0
2017-Oct-14 12:30N 51°52' E 004°16'1 1.1
2017-Oct-14 12:00N 51°53' E 004°17'1 2.4
2017-Oct-14 11:30N 51°53' E 004°18'1 0.6
2017-Oct-14 10:31N 51°53' E 004°18'0 0.0
2017-Oct-14 10:25N 51°53' E 004°18'0 0.0
2017-Oct-14 09:55N 51°53' E 004°18'0 0.0
2017-Oct-14 09:25N 51°53' E 004°18'0 0.0
2017-Oct-14 08:55N 51°53' E 004°18'0 0.0
2017-Oct-14 08:19N 51°53' E 004°18'0 0.0
2017-Oct-14 07:55N 51°53' E 004°18'0 0.0
2017-Oct-14 07:25N 51°53' E 004°18'0 0.0
2017-Oct-14 06:49N 51°53' E 004°18'0 0.0
2017-Oct-14 06:25N 51°53' E 004°18'0 0.0
2017-Oct-14 05:55N 51°53' E 004°18'0 0.0
2017-Oct-14 05:28N 51°53' E 004°18'0 0.0
2017-Oct-14 04:43N 51°53' E 004°18'0 0.0
2017-Oct-14 04:19N 51°53' E 004°18'0 0.0
2017-Oct-14 03:55N 51°53' E 004°18'0 0.0
2017-Oct-14 03:25N 51°53' E 004°18'0 0.0
2017-Oct-14 02:58N 51°53' E 004°18'0 0.0
2017-Oct-14 02:19N 51°53' E 004°18'0 0.0
2017-Oct-14 01:43N 51°53' E 004°18'0 0.0
2017-Oct-14 01:25N 51°53' E 004°18'0 0.0
2017-Oct-14 00:55N 51°53' E 004°18'0 0.0
2017-Oct-14 00:25N 51°53' E 004°18'0 0.0
2017-Oct-13 23:55N 51°53' E 004°18'0 0.0
2017-Oct-13 23:25N 51°53' E 004°18'0 0.0
2017-Oct-13 22:55N 51°53' E 004°18'0 0.0
2017-Oct-13 22:25N 51°53' E 004°18'0 0.0
2017-Oct-13 21:55N 51°53' E 004°18'0 0.0
2017-Oct-13 21:25N 51°53' E 004°18'0 0.0
2017-Oct-13 20:55N 51°53' E 004°18'0 0.0
2017-Oct-13 20:28N 51°53' E 004°18'0 0.0
2017-Oct-13 19:55N 51°53' E 004°18'0 0.0
2017-Oct-13 19:25N 51°53' E 004°18'0 0.0
2017-Oct-13 18:58N 51°53' E 004°18'0 0.0
2017-Oct-13 18:25N 51°53' E 004°18'0 0.0
2017-Oct-13 17:55N 51°53' E 004°18'0 0.0
2017-Oct-13 17:13N 51°53' E 004°18'0 0.0
2017-Oct-13 16:55N 51°53' E 004°18'0 0.0
2017-Oct-13 16:28N 51°53' E 004°18'0 0.0
2017-Oct-13 15:58N 51°53' E 004°18'0 0.0
2017-Oct-13 15:25N 51°53' E 004°18'0 0.0
2017-Oct-13 14:49N 51°53' E 004°18'0 0.0
2017-Oct-13 14:25N 51°53' E 004°18'0 0.0
2017-Oct-13 13:37N 51°53' E 004°18'0 0.0
2017-Oct-13 13:19N 51°53' E 004°18'0 0.0
2017-Oct-13 12:55N 51°53' E 004°18'0 0.0
2017-Oct-13 12:25N 51°53' E 004°18'0 0.0
2017-Oct-13 11:55N 51°53' E 004°18'0 0.0
2017-Oct-13 11:19N 51°53' E 004°18'0 0.0
2017-Oct-13 10:55N 51°53' E 004°18'0 0.0
2017-Oct-13 10:28N 51°53' E 004°18'0 0.0
2017-Oct-13 09:49N 51°53' E 004°18'0 0.0
2017-Oct-13 09:25N 51°53' E 004°18'0 0.0
2017-Oct-13 08:43N 51°53' E 004°18'0 0.0
2017-Oct-13 08:25N 51°53' E 004°18'0 0.0
2017-Oct-13 07:52N 51°53' E 004°18'0 0.0
2017-Oct-13 07:25N 51°53' E 004°18'0 0.0
2017-Oct-13 06:55N 51°53' E 004°18'0 0.0
2017-Oct-13 06:19N 51°53' E 004°18'0 0.0
2017-Oct-13 05:55N 51°53' E 004°18'0 0.0
2017-Oct-13 05:25N 51°53' E 004°18'0 0.0
2017-Oct-13 04:55N 51°53' E 004°18'0 0.0
2017-Oct-13 04:28N 51°53' E 004°18'0 0.0
2017-Oct-13 03:55N 51°53' E 004°18'0 0.0
2017-Oct-13 03:28N 51°53' E 004°18'0 0.0
2017-Oct-13 02:49N 51°53' E 004°18'0 0.0
2017-Oct-13 02:25N 51°53' E 004°18'0 0.0
2017-Oct-13 01:58N 51°53' E 004°18'0 0.0
2017-Oct-13 01:25N 51°53' E 004°18'0 0.0
2017-Oct-13 00:52N 51°53' E 004°18'0 0.0
2017-Oct-13 00:25N 51°53' E 004°18'0 0.0
2017-Oct-12 23:58N 51°53' E 004°18'0 0.0
2017-Oct-12 23:25N 51°53' E 004°18'0 0.0
2017-Oct-12 22:55N 51°53' E 004°18'0 0.0
2017-Oct-12 22:25N 51°53' E 004°18'0 0.0
2017-Oct-12 21:55N 51°53' E 004°18'0 0.0
2017-Oct-12 21:25N 51°53' E 004°18'0 0.0
2017-Oct-12 20:55N 51°53' E 004°18'0 0.0
2017-Oct-12 20:25N 51°53' E 004°18'0 0.0
2017-Oct-12 19:52N 51°53' E 004°18'0 0.0
2017-Oct-12 19:25N 51°53' E 004°18'0 0.0
2017-Oct-12 18:55N 51°53' E 004°18'0 0.0
2017-Oct-12 18:25N 51°53' E 004°18'0 0.0
2017-Oct-12 17:58N 51°53' E 004°18'0 0.0
2017-Oct-12 17:28N 51°53' E 004°18'0 0.0
2017-Oct-12 16:55N 51°53' E 004°18'0 0.0
2017-Oct-12 16:25N 51°53' E 004°18'0 0.0
2017-Oct-12 15:58N 51°53' E 004°18'0 0.0
2017-Oct-12 15:28N 51°53' E 004°18'0 0.0
2017-Oct-12 14:55N 51°53' E 004°18'0 0.0
2017-Oct-12 14:19N 51°53' E 004°18'0 0.0
2017-Oct-12 13:55N 51°53' E 004°18'0 0.0
2017-Oct-12 13:28N 51°53' E 004°18'0 0.0
2017-Oct-12 12:58N 51°53' E 004°18'0 0.0
2017-Oct-12 12:25N 51°53' E 004°18'0 0.0
2017-Oct-12 11:49N 51°53' E 004°18'0 0.0
2017-Oct-12 11:28N 51°53' E 004°18'0 0.0
2017-Oct-12 10:55N 51°53' E 004°18'0 0.0
2017-Oct-12 10:25N 51°53' E 004°18'0 0.0
2017-Oct-12 09:55N 51°53' E 004°18'0 0.0
2017-Oct-12 09:25N 51°53' E 004°18'0 0.0
2017-Oct-12 08:58N 51°53' E 004°18'0 0.0
2017-Oct-12 08:25N 51°53' E 004°18'0 0.0
2017-Oct-12 07:55N 51°53' E 004°18'0 0.0
2017-Oct-12 07:25N 51°53' E 004°18'0 0.0
2017-Oct-12 06:52N 51°53' E 004°18'0 0.0
2017-Oct-12 06:16N 51°53' E 004°18'0 0.0
2017-Oct-12 05:58N 51°53' E 004°18'0 0.0
2017-Oct-12 05:28N 51°53' E 004°18'0 0.0
2017-Oct-12 04:55N 51°53' E 004°18'0 0.0
2017-Oct-12 04:25N 51°53' E 004°18'0 0.0
2017-Oct-12 03:58N 51°53' E 004°18'0 0.0
2017-Oct-12 03:25N 51°53' E 004°18'0 0.0
2017-Oct-12 02:55N 51°53' E 004°18'0 0.0
2017-Oct-12 02:28N 51°53' E 004°18'0 0.0
2017-Oct-12 01:55N 51°53' E 004°18'0 0.0
2017-Oct-12 01:28N 51°53' E 004°18'0 0.0
2017-Oct-12 00:58N 51°53' E 004°18'0 0.0
2017-Oct-12 00:25N 51°53' E 004°18'0 0.0
2017-Oct-11 23:55N 51°53' E 004°18'0 0.0
2017-Oct-11 23:25N 51°53' E 004°18'0 0.0
2017-Oct-11 22:55N 51°53' E 004°18'0 0.0
2017-Oct-11 22:28N 51°53' E 004°18'0 0.0
2017-Oct-11 21:55N 51°53' E 004°18'0 0.0
2017-Oct-11 21:19N 51°53' E 004°18'0 0.0
2017-Oct-11 20:58N 51°53' E 004°18'0 0.0
2017-Oct-11 20:25N 51°53' E 004°18'0 0.0
2017-Oct-11 19:58N 51°53' E 004°18'0 0.0
2017-Oct-11 19:25N 51°53' E 004°18'0 0.0
2017-Oct-11 18:58N 51°53' E 004°18'0 0.0
2017-Oct-11 18:25N 51°53' E 004°18'0 0.0
2017-Oct-11 17:55N 51°53' E 004°18'0 0.0
2017-Oct-11 17:28N 51°53' E 004°18'0 0.0
2017-Oct-11 16:55N 51°53' E 004°18'18210.7
2017-Oct-10 23:58N 50°19' E 000°10'716.3
2017-Oct-10 23:30N 50°17' W 000°01'1016.4
2017-Oct-10 22:53N 50°14' W 000°16'9812.9
2017-Oct-10 15:16N 49°51' W 002°45'312.2
2017-Oct-10 15:01N 49°50' W 002°50'1512.8
2017-Oct-10 13:49N 49°44' W 003°11'413.2
2017-Oct-10 13:30N 49°42' W 003°17'713.4
2017-Oct-10 12:59N 49°39' W 003°27'713.4
2017-Oct-10 12:30N 49°36' W 003°36'713.5
2017-Oct-10 12:00N 49°34' W 003°46'713.6
2017-Oct-10 11:30N 49°31' W 003°55'1113.9
2017-Oct-10 10:41N 49°26' W 004°11'514.1
2017-Oct-10 10:19N 49°25' W 004°19'913.8
2017-Oct-10 09:40N 49°29' W 004°31'4314.9
2017-Oct-10 06:47N 49°18' W 005°35'515.5
2017-Oct-10 06:29N 49°17' W 005°42'715.3
2017-Oct-10 06:00N 49°15' W 005°53'815.0
2017-Oct-10 05:30N 49°12' W 006°04'1614.9
2017-Oct-10 04:26N 49°07' W 006°27'714.4
2017-Oct-10 03:58N 49°05' W 006°37'  
Track history (hours):
 
Tides and Currents Weather Stations Pressure Air Temp Water Temp Dewpoint Dewpoint Depression Visibility Wind Speed Wind Dir Waves Ship Positions

Chem Sirius

Last reported at 2017-Oct-18 00:00 UTC. Time now 2017-Oct-18 00:17 UTC.
Position N 51°17' E 004°20'.

Length 146 m; draft 6.7 m.

Type: Ship (hazmat cat B). MMSI: 636017165.

Date/timePositionNaut miles runAvg speedWind from/ knotsBaromVisibWave heightAir tempDewpointWater temp
2017-Oct-18 00:00N 51°17' E 004°20'1 1.2
2017-Oct-17 23:30N 51°17' E 004°20'0 0.0
2017-Oct-17 23:00N 51°17' E 004°20'0 0.0
2017-Oct-17 22:30N 51°17' E 004°20'0 0.0
2017-Oct-17 22:00N 51°17' E 004°20'0 0.0
2017-Oct-17 21:30N 51°17' E 004°20'0 0.0
2017-Oct-17 21:00N 51°17' E 004°20'0 0.0
2017-Oct-17 20:30N 51°17' E 004°20'0 0.0
2017-Oct-17 19:57N 51°17' E 004°20'0 0.0
2017-Oct-17 19:30N 51°17' E 004°20'0 0.0
2017-Oct-17 18:54N 51°17' E 004°20'0 0.0
2017-Oct-17 18:30N 51°17' E 004°20'0 0.0
2017-Oct-17 18:00N 51°17' E 004°20'0 0.0
2017-Oct-17 17:30N 51°17' E 004°20'0 0.0
2017-Oct-17 17:00N 51°17' E 004°20'0 0.0
2017-Oct-17 16:27N 51°17' E 004°20'0 0.0
2017-Oct-17 16:00N 51°17' E 004°20'0 0.0
2017-Oct-17 15:27N 51°17' E 004°20'0 0.0
2017-Oct-17 15:00N 51°17' E 004°20'0 0.0
2017-Oct-17 14:27N 51°17' E 004°20'0 0.0
2017-Oct-17 14:00N 51°17' E 004°20'0 0.0
2017-Oct-17 13:21N 51°17' E 004°20'0 0.0
2017-Oct-17 12:51N 51°17' E 004°20'0 0.0
2017-Oct-17 12:30N 51°17' E 004°20'0 0.0
2017-Oct-17 11:57N 51°17' E 004°20'0 0.0
2017-Oct-17 11:24N 51°17' E 004°20'0 0.0
2017-Oct-17 11:00N 51°17' E 004°20'0 0.0
2017-Oct-17 10:21N 51°17' E 004°20'0 0.0
2017-Oct-17 10:00N 51°17' E 004°20'0 0.0
2017-Oct-17 09:24N 51°17' E 004°20'0 0.0
2017-Oct-17 09:00N 51°17' E 004°20'0 0.0
2017-Oct-17 08:30N 51°17' E 004°20'0 0.0
2017-Oct-17 08:00N 51°17' E 004°20'0 0.0
2017-Oct-17 07:30N 51°17' E 004°20'0 0.0
2017-Oct-17 07:00N 51°17' E 004°20'0 0.0
2017-Oct-17 06:30N 51°17' E 004°20'0 0.0
2017-Oct-17 06:00N 51°17' E 004°20'0 0.0
2017-Oct-17 05:27N 51°17' E 004°20'0 0.0
2017-Oct-17 05:00N 51°17' E 004°20'0 0.0
2017-Oct-17 04:27N 51°17' E 004°20'0 0.0
2017-Oct-17 04:00N 51°17' E 004°20'0 0.0
2017-Oct-17 03:30N 51°17' E 004°20'1 1.1
2017-Oct-17 03:00N 51°17' E 004°20'3 5.4
2017-Oct-17 02:30N 51°20' E 004°18'1 2.2
2017-Oct-17 02:00N 51°21' E 004°17'0 0.1
2017-Oct-17 01:31N 51°21' E 004°17'1 2.8
2017-Oct-17 01:00N 51°21' E 004°15'4 7.3
2017-Oct-17 00:30N 51°24' E 004°11'5 9.8
2017-Oct-17 00:00N 51°22' E 004°04'4 8.8
2017-Oct-16 23:30N 51°25' E 003°58'613.0
2017-Oct-16 23:00N 51°21' E 003°50'611.9
2017-Oct-16 22:30N 51°24' E 003°43'510.0
2017-Oct-16 22:00N 51°25' E 003°35'611.4
2017-Oct-16 21:30N 51°25' E 003°26'714.4
2017-Oct-16 21:01N 51°25' E 003°14'713.4
2017-Oct-16 20:30N 51°24' E 003°04'612.2
2017-Oct-16 20:00N 51°22' E 002°54'611.4
2017-Oct-16 19:30N 51°22' E 002°45'6 9.1
2017-Oct-16 18:52N 51°22' E 002°36'3 9.5
2017-Oct-16 18:30N 51°23' E 002°31'713.3
2017-Oct-16 18:00N 51°30' E 002°35'714.1
2017-Oct-16 17:30N 51°36' E 002°39'714.0
2017-Oct-16 17:00N 51°43' E 002°38'2711.5
2017-Oct-16 14:39N 52°03' E 003°08'314.3
2017-Oct-16 14:27N 52°03' E 003°12'1414.2
2017-Oct-16 13:28N 52°03' E 003°35'613.1
2017-Oct-16 13:00N 52°03' E 003°45'510.5
2017-Oct-16 12:30N 52°02' E 003°53'510.5
2017-Oct-16 12:00N 52°00' E 004°01'611.1
2017-Oct-16 11:30N 51°58' E 004°09'5 9.4
2017-Oct-16 11:00N 51°55' E 004°15'3 5.0
2017-Oct-16 10:29N 51°53' E 004°19'0 0.0
2017-Oct-16 09:43N 51°53' E 004°19'0 0.0
2017-Oct-16 09:25N 51°53' E 004°19'0 0.0
2017-Oct-16 08:55N 51°53' E 004°19'0 0.0
2017-Oct-16 08:28N 51°53' E 004°19'0 0.0
2017-Oct-16 07:58N 51°53' E 004°19'0 0.0
2017-Oct-16 07:29N 51°53' E 004°19'0 0.0
2017-Oct-16 06:56N 51°53' E 004°19'0 0.0
2017-Oct-16 06:25N 51°53' E 004°19'0 0.0
2017-Oct-16 05:58N 51°53' E 004°19'0 0.0
2017-Oct-16 05:28N 51°53' E 004°19'0 0.0
2017-Oct-16 04:58N 51°53' E 004°19'0 0.0
2017-Oct-16 04:29N 51°53' E 004°19'0 0.0
2017-Oct-16 03:58N 51°53' E 004°19'0 0.0
2017-Oct-16 03:28N 51°53' E 004°19'0 0.0
2017-Oct-16 02:58N 51°53' E 004°19'0 0.0
2017-Oct-16 02:26N 51°53' E 004°19'0 0.0
2017-Oct-16 01:58N 51°53' E 004°19'0 0.0
2017-Oct-16 01:28N 51°53' E 004°19'0 0.0
2017-Oct-16 00:52N 51°53' E 004°19'0 0.0
2017-Oct-16 00:28N 51°53' E 004°19'0 0.0
2017-Oct-15 23:59N 51°53' E 004°19'0 0.0
2017-Oct-15 23:29N 51°53' E 004°19'0 0.0
2017-Oct-15 22:59N 51°53' E 004°19'0 0.0
2017-Oct-15 22:29N 51°53' E 004°19'0 0.2
2017-Oct-15 22:01N 51°53' E 004°19'1 2.4
2017-Oct-15 21:31N 51°53' E 004°17'1 1.2
2017-Oct-15 21:01N 51°52' E 004°16'0 0.0
2017-Oct-15 20:30N 51°52' E 004°16'0 0.0
2017-Oct-15 20:00N 51°52' E 004°16'0 0.0
2017-Oct-15 19:30N 51°52' E 004°16'0 0.0
2017-Oct-15 19:00N 51°52' E 004°16'0 0.0
2017-Oct-15 18:30N 51°52' E 004°16'0 0.0
2017-Oct-15 17:54N 51°52' E 004°16'0 0.0
2017-Oct-15 17:30N 51°52' E 004°16'0 0.0
2017-Oct-15 17:00N 51°52' E 004°16'0 0.0
2017-Oct-15 16:27N 51°52' E 004°16'0 0.0
2017-Oct-15 15:54N 51°52' E 004°16'0 0.0
2017-Oct-15 15:30N 51°52' E 004°16'0 0.0
2017-Oct-15 15:00N 51°52' E 004°16'0 0.0
2017-Oct-15 13:57N 51°52' E 004°16'0 0.0
2017-Oct-15 13:27N 51°52' E 004°16'0 0.0
2017-Oct-15 12:57N 51°52' E 004°16'0 0.0
2017-Oct-15 12:30N 51°52' E 004°16'0 0.0
2017-Oct-15 12:00N 51°52' E 004°16'0 0.0
2017-Oct-15 11:30N 51°52' E 004°16'0 0.0
2017-Oct-15 11:00N 51°52' E 004°16'0 0.0
2017-Oct-15 10:30N 51°52' E 004°16'0 0.0
2017-Oct-15 10:00N 51°52' E 004°16'0 0.0
2017-Oct-15 09:27N 51°52' E 004°16'0 0.0
2017-Oct-15 09:00N 51°52' E 004°16'0 0.0
2017-Oct-15 08:30N 51°52' E 004°16'0 0.0
2017-Oct-15 07:57N 51°52' E 004°16'0 0.0
2017-Oct-15 07:30N 51°52' E 004°16'0 0.0
2017-Oct-15 06:57N 51°52' E 004°16'0 0.0
2017-Oct-15 06:30N 51°52' E 004°16'0 0.0
2017-Oct-15 06:00N 51°52' E 004°16'0 0.0
2017-Oct-15 05:27N 51°52' E 004°16'0 0.0
2017-Oct-15 05:00N 51°52' E 004°16'0 0.0
2017-Oct-15 04:30N 51°52' E 004°16'0 0.0
2017-Oct-15 04:00N 51°52' E 004°16'0 0.0
2017-Oct-15 03:27N 51°52' E 004°16'0 0.0
2017-Oct-15 02:57N 51°52' E 004°16'0 0.0
2017-Oct-15 02:27N 51°52' E 004°16'0 0.0
2017-Oct-15 02:00N 51°52' E 004°16'0 0.0
2017-Oct-15 01:24N 51°52' E 004°16'0 0.0
2017-Oct-15 01:00N 51°52' E 004°16'0 0.0
2017-Oct-15 00:30N 51°52' E 004°16'0 0.0
2017-Oct-15 00:00N 51°52' E 004°16'0 0.0
2017-Oct-14 23:30N 51°52' E 004°16'0 0.0
2017-Oct-14 22:57N 51°52' E 004°16'0 0.0
2017-Oct-14 22:30N 51°52' E 004°16'0 0.0
2017-Oct-14 22:00N 51°52' E 004°16'0 0.0
2017-Oct-14 21:27N 51°52' E 004°16'0 0.0
2017-Oct-14 21:00N 51°52' E 004°16'0 0.0
2017-Oct-14 20:30N 51°52' E 004°16'0 0.0
2017-Oct-14 20:00N 51°52' E 004°16'0 0.0
2017-Oct-14 19:27N 51°52' E 004°16'0 0.0
2017-Oct-14 19:00N 51°52' E 004°16'0 0.0
2017-Oct-14 18:30N 51°52' E 004°16'0 0.0
2017-Oct-14 18:00N 51°52' E 004°16'0 0.0
2017-Oct-14 17:27N 51°52' E 004°16'0 0.0
2017-Oct-14 17:00N 51°52' E 004°16'0 0.0
2017-Oct-14 16:30N 51°52' E 004°16'0 0.0
2017-Oct-14 15:57N 51°52' E 004°16'0 0.0
2017-Oct-14 15:27N 51°52' E 004°16'0 0.0
2017-Oct-14 15:00N 51°52' E 004°16'0 0.0
2017-Oct-14 14:30N 51°52' E 004°16'0 0.0
2017-Oct-14 13:57N 51°52' E 004°16'0 0.0
2017-Oct-14 13:30N 51°52' E 004°16'0 0.0
2017-Oct-14 13:00N 51°52' E 004°16'0 0.0
2017-Oct-14 12:30N 51°52' E 004°16'1 1.1
2017-Oct-14 12:00N 51°53' E 004°17'1 2.4
2017-Oct-14 11:30N 51°53' E 004°18'1 0.6
2017-Oct-14 10:31N 51°53' E 004°18'0 0.0
2017-Oct-14 10:25N 51°53' E 004°18'0 0.0
2017-Oct-14 09:55N 51°53' E 004°18'0 0.0
2017-Oct-14 09:25N 51°53' E 004°18'0 0.0
2017-Oct-14 08:55N 51°53' E 004°18'0 0.0
2017-Oct-14 08:19N 51°53' E 004°18'0 0.0
2017-Oct-14 07:55N 51°53' E 004°18'0 0.0
2017-Oct-14 07:25N 51°53' E 004°18'0 0.0
2017-Oct-14 06:49N 51°53' E 004°18'0 0.0
2017-Oct-14 06:25N 51°53' E 004°18'0 0.0
2017-Oct-14 05:55N 51°53' E 004°18'0 0.0
2017-Oct-14 05:28N 51°53' E 004°18'0 0.0
2017-Oct-14 04:43N 51°53' E 004°18'0 0.0
2017-Oct-14 04:19N 51°53' E 004°18'0 0.0
2017-Oct-14 03:55N 51°53' E 004°18'0 0.0
2017-Oct-14 03:25N 51°53' E 004°18'0 0.0
2017-Oct-14 02:58N 51°53' E 004°18'0 0.0
2017-Oct-14 02:19N 51°53' E 004°18'0 0.0
2017-Oct-14 01:43N 51°53' E 004°18'0 0.0
2017-Oct-14 01:25N 51°53' E 004°18'0 0.0
2017-Oct-14 00:55N 51°53' E 004°18'0 0.0
2017-Oct-14 00:25N 51°53' E 004°18'0 0.0
2017-Oct-13 23:55N 51°53' E 004°18'0 0.0
2017-Oct-13 23:25N 51°53' E 004°18'0 0.0
2017-Oct-13 22:55N 51°53' E 004°18'0 0.0
2017-Oct-13 22:25N 51°53' E 004°18'0 0.0
2017-Oct-13 21:55N 51°53' E 004°18'0 0.0
2017-Oct-13 21:25N 51°53' E 004°18'0 0.0
2017-Oct-13 20:55N 51°53' E 004°18'0 0.0
2017-Oct-13 20:28N 51°53' E 004°18'0 0.0
2017-Oct-13 19:55N 51°53' E 004°18'0 0.0
2017-Oct-13 19:25N 51°53' E 004°18'0 0.0
2017-Oct-13 18:58N 51°53' E 004°18'0 0.0
2017-Oct-13 18:25N 51°53' E 004°18'0 0.0
2017-Oct-13 17:55N 51°53' E 004°18'0 0.0
2017-Oct-13 17:13N 51°53' E 004°18'0 0.0
2017-Oct-13 16:55N 51°53' E 004°18'0 0.0
2017-Oct-13 16:28N 51°53' E 004°18'0 0.0
2017-Oct-13 15:58N 51°53' E 004°18'0 0.0
2017-Oct-13 15:25N 51°53' E 004°18'0 0.0
2017-Oct-13 14:49N 51°53' E 004°18'0 0.0
2017-Oct-13 14:25N 51°53' E 004°18'0 0.0
2017-Oct-13 13:37N 51°53' E 004°18'0 0.0
2017-Oct-13 13:19N 51°53' E 004°18'0 0.0
2017-Oct-13 12:55N 51°53' E 004°18'0 0.0
2017-Oct-13 12:25N 51°53' E 004°18'0 0.0
2017-Oct-13 11:55N 51°53' E 004°18'0 0.0
2017-Oct-13 11:19N 51°53' E 004°18'0 0.0
2017-Oct-13 10:55N 51°53' E 004°18'0 0.0
2017-Oct-13 10:28N 51°53' E 004°18'0 0.0
2017-Oct-13 09:49N 51°53' E 004°18'0 0.0
2017-Oct-13 09:25N 51°53' E 004°18'0 0.0
2017-Oct-13 08:43N 51°53' E 004°18'0 0.0
2017-Oct-13 08:25N 51°53' E 004°18'0 0.0
2017-Oct-13 07:52N 51°53' E 004°18'0 0.0
2017-Oct-13 07:25N 51°53' E 004°18'0 0.0
2017-Oct-13 06:55N 51°53' E 004°18'0 0.0
2017-Oct-13 06:19N 51°53' E 004°18'0 0.0
2017-Oct-13 05:55N 51°53' E 004°18'0 0.0
2017-Oct-13 05:25N 51°53' E 004°18'0 0.0
2017-Oct-13 04:55N 51°53' E 004°18'0 0.0
2017-Oct-13 04:28N 51°53' E 004°18'0 0.0
2017-Oct-13 03:55N 51°53' E 004°18'0 0.0
2017-Oct-13 03:28N 51°53' E 004°18'0 0.0
2017-Oct-13 02:49N 51°53' E 004°18'0 0.0
2017-Oct-13 02:25N 51°53' E 004°18'0 0.0
2017-Oct-13 01:58N 51°53' E 004°18'0 0.0
2017-Oct-13 01:25N 51°53' E 004°18'0 0.0
2017-Oct-13 00:52N 51°53' E 004°18'0 0.0
2017-Oct-13 00:25N 51°53' E 004°18'0 0.0
2017-Oct-12 23:58N 51°53' E 004°18'0 0.0
2017-Oct-12 23:25N 51°53' E 004°18'0 0.0
2017-Oct-12 22:55N 51°53' E 004°18'0 0.0
2017-Oct-12 22:25N 51°53' E 004°18'0 0.0
2017-Oct-12 21:55N 51°53' E 004°18'0 0.0
2017-Oct-12 21:25N 51°53' E 004°18'0 0.0
2017-Oct-12 20:55N 51°53' E 004°18'0 0.0
2017-Oct-12 20:25N 51°53' E 004°18'0 0.0
2017-Oct-12 19:52N 51°53' E 004°18'0 0.0
2017-Oct-12 19:25N 51°53' E 004°18'0 0.0
2017-Oct-12 18:55N 51°53' E 004°18'0 0.0
2017-Oct-12 18:25N 51°53' E 004°18'0 0.0
2017-Oct-12 17:58N 51°53' E 004°18'0 0.0
2017-Oct-12 17:28N 51°53' E 004°18'0 0.0
2017-Oct-12 16:55N 51°53' E 004°18'0 0.0
2017-Oct-12 16:25N 51°53' E 004°18'0 0.0
2017-Oct-12 15:58N 51°53' E 004°18'0 0.0
2017-Oct-12 15:28N 51°53' E 004°18'0 0.0
2017-Oct-12 14:55N 51°53' E 004°18'0 0.0
2017-Oct-12 14:19N 51°53' E 004°18'0 0.0
2017-Oct-12 13:55N 51°53' E 004°18'0 0.0
2017-Oct-12 13:28N 51°53' E 004°18'0 0.0
2017-Oct-12 12:58N 51°53' E 004°18'0 0.0
2017-Oct-12 12:25N 51°53' E 004°18'0 0.0
2017-Oct-12 11:49N 51°53' E 004°18'0 0.0
2017-Oct-12 11:28N 51°53' E 004°18'0 0.0
2017-Oct-12 10:55N 51°53' E 004°18'0 0.0
2017-Oct-12 10:25N 51°53' E 004°18'0 0.0
2017-Oct-12 09:55N 51°53' E 004°18'0 0.0
2017-Oct-12 09:25N 51°53' E 004°18'0 0.0
2017-Oct-12 08:58N 51°53' E 004°18'0 0.0
2017-Oct-12 08:25N 51°53' E 004°18'0 0.0
2017-Oct-12 07:55N 51°53' E 004°18'0 0.0
2017-Oct-12 07:25N 51°53' E 004°18'0 0.0
2017-Oct-12 06:52N 51°53' E 004°18'0 0.0
2017-Oct-12 06:16N 51°53' E 004°18'0 0.0
2017-Oct-12 05:58N 51°53' E 004°18'0 0.0
2017-Oct-12 05:28N 51°53' E 004°18'0 0.0
2017-Oct-12 04:55N 51°53' E 004°18'0 0.0
2017-Oct-12 04:25N 51°53' E 004°18'0 0.0
2017-Oct-12 03:58N 51°53' E 004°18'0 0.0
2017-Oct-12 03:25N 51°53' E 004°18'0 0.0
2017-Oct-12 02:55N 51°53' E 004°18'0 0.0
2017-Oct-12 02:28N 51°53' E 004°18'0 0.0
2017-Oct-12 01:55N 51°53' E 004°18'0 0.0
2017-Oct-12 01:28N 51°53' E 004°18'0 0.0
2017-Oct-12 00:58N 51°53' E 004°18'0 0.0
2017-Oct-12 00:25N 51°53' E 004°18'0 0.0
2017-Oct-11 23:55N 51°53' E 004°18'0 0.0
2017-Oct-11 23:25N 51°53' E 004°18'0 0.0
2017-Oct-11 22:55N 51°53' E 004°18'0 0.0
2017-Oct-11 22:28N 51°53' E 004°18'0 0.0
2017-Oct-11 21:55N 51°53' E 004°18'0 0.0
2017-Oct-11 21:19N 51°53' E 004°18'0 0.0
2017-Oct-11 20:58N 51°53' E 004°18'0 0.0
2017-Oct-11 20:25N 51°53' E 004°18'0 0.0
2017-Oct-11 19:58N 51°53' E 004°18'0 0.0
2017-Oct-11 19:25N 51°53' E 004°18'0 0.0
2017-Oct-11 18:58N 51°53' E 004°18'0 0.0
2017-Oct-11 18:25N 51°53' E 004°18'0 0.0
2017-Oct-11 17:55N 51°53' E 004°18'0 0.0
2017-Oct-11 17:28N 51°53' E 004°18'0 0.0
2017-Oct-11 16:55N 51°53' E 004°18'18210.7
2017-Oct-10 23:58N 50°19' E 000°10'716.3
2017-Oct-10 23:30N 50°17' W 000°01'1016.4
2017-Oct-10 22:53N 50°14' W 000°16'9812.9
2017-Oct-10 15:16N 49°51' W 002°45'312.2
2017-Oct-10 15:01N 49°50' W 002°50'1512.8
2017-Oct-10 13:49N 49°44' W 003°11'413.2
2017-Oct-10 13:30N 49°42' W 003°17'713.4
2017-Oct-10 12:59N 49°39' W 003°27'713.4
2017-Oct-10 12:30N 49°36' W 003°36'713.5
2017-Oct-10 12:00N 49°34' W 003°46'713.6
2017-Oct-10 11:30N 49°31' W 003°55'1113.9
2017-Oct-10 10:41N 49°26' W 004°11'514.1
2017-Oct-10 10:19N 49°25' W 004°19'913.8
2017-Oct-10 09:40N 49°29' W 004°31'4314.9
2017-Oct-10 06:47N 49°18' W 005°35'515.5
2017-Oct-10 06:29N 49°17' W 005°42'715.3
2017-Oct-10 06:00N 49°15' W 005°53'815.0
2017-Oct-10 05:30N 49°12' W 006°04'1614.9
2017-Oct-10 04:26N 49°07' W 006°27'714.4
2017-Oct-10 03:58N 49°05' W 006°37'  

Dump ship's entire track history